createdAt,value
2018-05-10T00:00:32.278Z,998.04
2018-05-10T00:01:32.270Z,998.05
2018-05-10T00:02:32.257Z,998.06
2018-05-10T00:03:32.243Z,998.09
2018-05-10T00:04:32.238Z,998.08
2018-05-10T00:05:32.221Z,998.08
2018-05-10T00:06:32.219Z,998.07
2018-05-10T00:07:32.204Z,998.08
2018-05-10T00:08:32.190Z,998.06
2018-05-10T00:09:32.179Z,998.06
2018-05-10T00:10:32.172Z,998.04
2018-05-10T00:11:32.159Z,998.03
2018-05-10T00:12:32.151Z,998.05
2018-05-10T00:13:32.138Z,998.02
2018-05-10T00:14:32.131Z,998.02
2018-05-10T00:15:32.119Z,998.01
2018-05-10T00:16:32.109Z,998.00
2018-05-10T00:17:32.099Z,997.95
2018-05-10T00:18:32.085Z,997.98
2018-05-10T00:19:32.075Z,997.96
2018-05-10T00:20:32.070Z,997.96
2018-05-10T00:21:32.055Z,997.97
2018-05-10T00:22:32.044Z,997.95
2018-05-10T00:23:32.038Z,997.94
2018-05-10T00:24:32.027Z,997.95
2018-05-10T00:25:32.016Z,997.96
2018-05-10T00:26:32.005Z,997.91
2018-05-10T00:27:32.008Z,997.93
2018-05-10T00:28:31.979Z,997.89
2018-05-10T00:29:31.977Z,997.90
2018-05-10T00:30:31.962Z,997.85
2018-05-10T00:31:31.949Z,997.88
2018-05-10T00:32:31.938Z,997.88
2018-05-10T00:33:31.929Z,997.88
2018-05-10T00:34:31.920Z,997.86
2018-05-10T00:35:31.908Z,997.87
2018-05-10T00:36:31.898Z,997.90
2018-05-10T00:37:31.892Z,997.86
2018-05-10T00:38:31.876Z,997.88
2018-05-10T00:39:31.867Z,997.89
2018-05-10T00:40:31.859Z,997.89
2018-05-10T00:41:31.844Z,997.89
2018-05-10T00:42:31.836Z,997.87
2018-05-10T00:43:31.830Z,997.88
2018-05-10T00:44:31.815Z,997.88
2018-05-10T00:45:31.814Z,997.85
2018-05-10T00:46:31.792Z,997.85
2018-05-10T00:47:31.784Z,997.87
2018-05-10T00:48:31.775Z,997.85
2018-05-10T00:49:31.759Z,997.84
2018-05-10T00:50:31.754Z,997.81
2018-05-10T00:51:31.741Z,997.85
2018-05-10T00:52:31.731Z,997.83
2018-05-10T00:53:31.721Z,997.82
2018-05-10T00:54:31.712Z,997.83
2018-05-10T00:55:31.779Z,997.83
2018-05-10T00:56:31.690Z,997.81
2018-05-10T00:57:31.727Z,997.78
2018-05-10T00:58:31.679Z,997.80
2018-05-10T00:59:31.665Z,997.76
2018-05-10T01:00:31.641Z,997.74
2018-05-10T01:01:31.645Z,997.73
2018-05-10T01:02:31.624Z,997.70
2018-05-10T01:03:31.612Z,997.70
2018-05-10T01:04:31.599Z,997.75
2018-05-10T01:05:31.590Z,997.72
2018-05-10T01:06:31.579Z,997.71
2018-05-10T01:07:31.571Z,997.70
2018-05-10T01:08:31.575Z,997.77
2018-05-10T01:09:31.557Z,997.73
2018-05-10T01:10:31.535Z,997.77
2018-05-10T01:11:31.529Z,997.74
2018-05-10T01:12:31.513Z,997.75
2018-05-10T01:13:31.501Z,997.77
2018-05-10T01:14:31.491Z,997.74
2018-05-10T01:15:31.497Z,997.75
2018-05-10T01:16:31.468Z,997.75
2018-05-10T01:17:31.461Z,997.75
2018-05-10T01:18:31.450Z,997.71
2018-05-10T01:19:31.443Z,997.70
2018-05-10T01:20:31.446Z,997.70
2018-05-10T01:21:31.420Z,997.74
2018-05-10T01:22:31.403Z,997.75
2018-05-10T01:23:31.472Z,997.79
2018-05-10T01:24:31.383Z,997.79
2018-05-10T01:25:31.479Z,997.81
2018-05-10T01:26:31.364Z,997.82
2018-05-10T01:27:31.452Z,997.81
2018-05-10T01:28:31.337Z,997.84
2018-05-10T01:29:31.330Z,997.84
2018-05-10T01:30:31.322Z,997.85
2018-05-10T01:31:31.336Z,997.86
2018-05-10T01:32:31.294Z,997.84
2018-05-10T01:33:31.298Z,997.82
2018-05-10T01:34:31.275Z,997.77
2018-05-10T01:35:31.313Z,997.77
2018-05-10T01:36:31.249Z,997.75
2018-05-10T01:37:31.240Z,997.79
2018-05-10T01:38:31.231Z,997.82
2018-05-10T01:39:31.220Z,997.80
2018-05-10T01:40:31.209Z,997.77
2018-05-10T01:41:31.247Z,997.80
2018-05-10T01:42:31.186Z,997.82
2018-05-10T01:43:31.224Z,997.79
2018-05-10T01:44:31.168Z,997.82
2018-05-10T01:45:31.158Z,997.84
2018-05-10T01:46:31.145Z,997.82
2018-05-10T01:47:31.131Z,997.84
2018-05-10T01:48:31.121Z,997.82
2018-05-10T01:49:31.112Z,997.80
2018-05-10T01:50:31.107Z,997.83
2018-05-10T01:51:31.091Z,997.83
2018-05-10T01:52:31.075Z,997.83
2018-05-10T01:53:31.065Z,997.83
2018-05-10T01:54:31.052Z,997.81
2018-05-10T01:55:31.045Z,997.83
2018-05-10T01:56:31.031Z,997.81
2018-05-10T01:57:31.020Z,997.75
2018-05-10T01:58:31.012Z,997.77
2018-05-10T01:59:30.996Z,997.79
2018-05-10T02:00:30.984Z,997.77
2018-05-10T02:01:30.981Z,997.76
2018-05-10T02:02:30.967Z,997.75
2018-05-10T02:03:31.009Z,997.75
2018-05-10T02:04:30.940Z,997.76
2018-05-10T02:05:30.928Z,997.77
2018-05-10T02:06:30.929Z,997.74
2018-05-10T02:07:30.910Z,997.72
2018-05-10T02:08:30.903Z,997.71
2018-05-10T02:09:30.886Z,997.69
2018-05-10T02:10:30.875Z,997.68
2018-05-10T02:11:30.870Z,997.72
2018-05-10T02:12:30.859Z,997.74
2018-05-10T02:13:30.839Z,997.72
2018-05-10T02:14:30.828Z,997.66
2018-05-10T02:15:30.817Z,997.69
2018-05-10T02:16:30.811Z,997.72
2018-05-10T02:17:30.799Z,997.70
2018-05-10T02:18:30.783Z,997.75
2018-05-10T02:19:30.773Z,997.73
2018-05-10T02:20:30.773Z,997.71
2018-05-10T02:21:30.748Z,997.72
2018-05-10T02:22:30.747Z,997.73
2018-05-10T02:23:30.729Z,997.73
2018-05-10T02:24:30.719Z,997.75
2018-05-10T02:25:30.710Z,997.73
2018-05-10T02:26:30.699Z,997.76
2018-05-10T02:27:30.687Z,997.78
2018-05-10T02:28:30.671Z,997.79
2018-05-10T02:29:30.662Z,997.76
2018-05-10T02:30:30.652Z,997.75
2018-05-10T02:31:30.641Z,997.77
2018-05-10T02:32:30.631Z,997.77
2018-05-10T02:33:30.616Z,997.77
2018-05-10T02:34:30.614Z,997.76
2018-05-10T02:35:30.606Z,997.83
2018-05-10T02:36:30.783Z,997.84
2018-05-10T02:37:30.571Z,997.83
2018-05-10T02:38:30.562Z,997.88
2018-05-10T02:39:30.550Z,997.97
2018-05-10T02:40:30.536Z,998.01
2018-05-10T02:41:30.530Z,998.04
2018-05-10T02:42:30.523Z,998.05
2018-05-10T02:43:30.510Z,998.07
2018-05-10T02:44:30.490Z,998.08
2018-05-10T02:45:30.481Z,998.13
2018-05-10T02:46:30.476Z,998.10
2018-05-10T02:47:30.456Z,998.08
2018-05-10T02:48:30.444Z,998.08
2018-05-10T02:49:30.440Z,998.09
2018-05-10T02:50:30.431Z,998.11
2018-05-10T02:51:30.415Z,998.14
2018-05-10T02:52:30.399Z,998.18
2018-05-10T02:53:30.392Z,998.21
2018-05-10T02:54:30.378Z,998.21
2018-05-10T02:55:30.369Z,998.23
2018-05-10T02:56:30.351Z,998.23
2018-05-10T02:57:30.341Z,998.27
2018-05-10T02:58:30.331Z,998.29
2018-05-10T02:59:30.330Z,998.30
2018-05-10T03:00:30.309Z,998.31
2018-05-10T03:01:30.299Z,998.37
2018-05-10T03:02:30.295Z,998.39
2018-05-10T03:03:30.270Z,998.43
2018-05-10T03:04:30.269Z,998.45
2018-05-10T03:05:30.250Z,998.48
2018-05-10T03:06:30.241Z,998.53
2018-05-10T03:07:30.231Z,998.53
2018-05-10T03:08:30.210Z,998.57
2018-05-10T03:09:30.202Z,998.52
2018-05-10T03:10:30.190Z,998.53
2018-05-10T03:11:30.178Z,998.50
2018-05-10T03:12:30.204Z,998.49
2018-05-10T03:13:30.218Z,998.46
2018-05-10T03:14:30.139Z,998.48
2018-05-10T03:15:30.129Z,998.43
2018-05-10T03:16:30.120Z,998.43
2018-05-10T03:17:30.109Z,998.47
2018-05-10T03:18:30.095Z,998.48
2018-05-10T03:19:30.090Z,998.40
2018-05-10T03:20:30.070Z,998.39
2018-05-10T03:21:30.059Z,998.39
2018-05-10T03:22:30.049Z,998.42
2018-05-10T03:23:30.040Z,998.36
2018-05-10T03:24:30.022Z,998.45
2018-05-10T03:25:30.019Z,998.45
2018-05-10T03:26:30.003Z,998.40
2018-05-10T03:27:29.992Z,998.43
2018-05-10T03:28:29.977Z,998.50
2018-05-10T03:29:30.120Z,998.46
2018-05-10T03:30:29.960Z,998.48
2018-05-10T03:31:30.000Z,998.47
2018-05-10T03:32:29.929Z,998.51
2018-05-10T03:33:30.020Z,998.45
2018-05-10T03:34:29.909Z,998.45
2018-05-10T03:35:29.899Z,998.50
2018-05-10T03:36:29.881Z,998.41
2018-05-10T03:37:29.881Z,998.48
2018-05-10T03:38:29.857Z,998.46
2018-05-10T03:39:29.895Z,998.43
2018-05-10T03:40:29.874Z,998.49
2018-05-10T03:41:29.817Z,998.50
2018-05-10T03:42:29.812Z,998.50
2018-05-10T03:43:29.799Z,998.51
2018-05-10T03:44:29.784Z,998.57
2018-05-10T03:45:29.768Z,998.60
2018-05-10T03:46:29.798Z,998.60
2018-05-10T03:47:29.744Z,998.61
2018-05-10T03:48:29.733Z,998.63
2018-05-10T03:49:29.724Z,998.62
2018-05-10T03:50:29.710Z,998.62
2018-05-10T03:51:29.704Z,998.63
2018-05-10T03:52:29.694Z,998.62
2018-05-10T03:53:29.679Z,998.66
2018-05-10T03:54:29.660Z,998.64
2018-05-10T03:55:29.648Z,998.69
2018-05-10T03:56:29.638Z,998.73
2018-05-10T03:57:29.636Z,998.75
2018-05-10T03:58:29.620Z,998.79
2018-05-10T03:59:29.599Z,998.83
2018-05-10T04:00:29.588Z,998.87
2018-05-10T04:01:29.580Z,998.88
2018-05-10T04:02:29.567Z,998.89
2018-05-10T04:03:29.556Z,998.90
2018-05-10T04:04:29.540Z,998.89
2018-05-10T04:05:29.529Z,998.95
2018-05-10T04:06:29.520Z,998.96
2018-05-10T04:07:29.504Z,998.99
2018-05-10T04:08:29.490Z,999.01
2018-05-10T04:09:29.479Z,999.01
2018-05-10T04:10:29.463Z,999.04
2018-05-10T04:11:29.458Z,999.04
2018-05-10T04:12:29.444Z,999.09
2018-05-10T04:13:29.431Z,999.08
2018-05-10T04:14:29.419Z,999.09
2018-05-10T04:15:29.438Z,999.14
2018-05-10T04:16:29.393Z,999.03
2018-05-10T04:17:29.388Z,999.09
2018-05-10T04:18:29.374Z,999.14
2018-05-10T04:19:29.360Z,999.06
2018-05-10T04:20:29.352Z,999.09
2018-05-10T04:21:29.344Z,999.03
2018-05-10T04:22:29.321Z,999.07
2018-05-10T04:23:29.312Z,999.10
2018-05-10T04:24:29.300Z,999.07
2018-05-10T04:25:29.291Z,999.06
2018-05-10T04:26:29.274Z,999.03
2018-05-10T04:27:29.262Z,999.05
2018-05-10T04:28:29.250Z,999.07
2018-05-10T04:29:29.242Z,999.07
2018-05-10T04:30:29.244Z,999.10
2018-05-10T04:31:29.211Z,999.06
2018-05-10T04:32:29.202Z,999.12
2018-05-10T04:33:29.194Z,999.17
2018-05-10T04:34:29.181Z,999.22
2018-05-10T04:35:29.163Z,999.27
2018-05-10T04:36:29.153Z,999.23
2018-05-10T04:37:29.140Z,999.34
2018-05-10T04:38:29.134Z,999.33
2018-05-10T04:39:29.121Z,999.33
2018-05-10T04:40:29.107Z,999.33
2018-05-10T04:41:29.091Z,999.34
2018-05-10T04:42:29.082Z,999.39
2018-05-10T04:43:29.066Z,999.41
2018-05-10T04:44:29.057Z,999.40
2018-05-10T04:45:29.051Z,999.48
2018-05-10T04:46:29.037Z,999.52
2018-05-10T04:47:29.022Z,999.47
2018-05-10T04:48:29.006Z,999.49
2018-05-10T04:49:28.990Z,999.52
2018-05-10T04:50:28.982Z,999.55
2018-05-10T04:51:28.972Z,999.57
2018-05-10T04:52:28.958Z,999.64
2018-05-10T04:53:28.948Z,999.64
2018-05-10T04:54:28.930Z,999.71
2018-05-10T04:55:28.920Z,999.70
2018-05-10T04:56:28.910Z,999.73
2018-05-10T04:57:28.905Z,999.73
2018-05-10T04:58:28.883Z,999.80
2018-05-10T04:59:28.870Z,999.76
2018-05-10T05:00:28.861Z,999.76
2018-05-10T05:01:28.853Z,999.76
2018-05-10T05:02:28.840Z,999.81
2018-05-10T05:03:28.876Z,999.79
2018-05-10T05:04:28.814Z,999.80
2018-05-10T05:05:28.810Z,999.77
2018-05-10T05:06:28.789Z,999.80
2018-05-10T05:07:28.774Z,999.83
2018-05-10T05:08:28.761Z,999.79
2018-05-10T05:09:28.753Z,999.83
2018-05-10T05:10:28.740Z,999.81
2018-05-10T05:11:28.727Z,999.84
2018-05-10T05:12:28.722Z,999.83
2018-05-10T05:13:28.701Z,999.85
2018-05-10T05:14:28.701Z,999.86
2018-05-10T05:15:28.681Z,999.94
2018-05-10T05:16:28.664Z,999.91
2018-05-10T05:17:28.654Z,999.93
2018-05-10T05:18:28.643Z,999.99
2018-05-10T05:19:28.630Z,1000.03
2018-05-10T05:20:28.621Z,999.99
2018-05-10T05:21:28.608Z,999.99
2018-05-10T05:22:28.590Z,1000.05
2018-05-10T05:23:28.580Z,1000.02
2018-05-10T05:24:28.568Z,1000.04
2018-05-10T05:25:28.560Z,1000.06
2018-05-10T05:26:28.551Z,1000.14
2018-05-10T05:27:28.529Z,1000.11
2018-05-10T05:28:28.518Z,1000.15
2018-05-10T05:29:28.508Z,1000.19
2018-05-10T05:30:28.494Z,1000.20
2018-05-10T05:31:28.480Z,1000.22
2018-05-10T05:32:28.470Z,1000.21
2018-05-10T05:33:28.461Z,1000.22
2018-05-10T05:34:28.446Z,1000.31
2018-05-10T05:35:28.529Z,1000.31
2018-05-10T05:36:28.419Z,1000.31
2018-05-10T05:37:28.412Z,1000.35
2018-05-10T05:38:28.399Z,1000.37
2018-05-10T05:39:28.386Z,1000.41
2018-05-10T05:40:28.369Z,1000.48
2018-05-10T05:41:28.384Z,1000.49
2018-05-10T05:42:28.360Z,1000.51
2018-05-10T05:43:28.524Z,1000.54
2018-05-10T05:44:28.321Z,1000.50
2018-05-10T05:45:28.310Z,1000.49
2018-05-10T05:46:28.299Z,1000.53
2018-05-10T05:47:28.289Z,1000.57
2018-05-10T05:48:28.269Z,1000.59
2018-05-10T05:49:28.310Z,1000.56
2018-05-10T05:50:28.248Z,1000.46
2018-05-10T05:51:28.337Z,1000.43
2018-05-10T05:52:28.223Z,1000.37
2018-05-10T05:53:28.215Z,1000.27
2018-05-10T05:54:28.196Z,1000.29
2018-05-10T05:55:28.193Z,1000.18
2018-05-10T05:56:28.171Z,1000.07
2018-05-10T05:57:28.159Z,1000.02
2018-05-10T05:58:28.152Z,999.98
2018-05-10T05:59:28.133Z,999.93
2018-05-10T06:00:28.123Z,999.92
2018-05-10T06:01:28.110Z,999.95
2018-05-10T06:02:28.097Z,999.85
2018-05-10T06:03:28.087Z,999.76
2018-05-10T06:04:28.070Z,999.76
2018-05-10T06:05:28.059Z,999.75
2018-05-10T06:06:28.054Z,999.66
2018-05-10T06:07:28.039Z,999.64
2018-05-10T06:08:28.021Z,999.69
2018-05-10T06:09:28.009Z,999.67
2018-05-10T06:10:28.003Z,999.63
2018-05-10T06:11:27.983Z,999.63
2018-05-10T06:12:27.970Z,999.64
2018-05-10T06:13:27.960Z,999.67
2018-05-10T06:14:27.972Z,999.70
2018-05-10T06:15:27.949Z,999.71
2018-05-10T06:16:27.919Z,999.77
2018-05-10T06:17:27.908Z,999.91
2018-05-10T06:18:27.947Z,999.88
2018-05-10T06:19:27.880Z,999.95
2018-05-10T06:20:27.867Z,1000.03
2018-05-10T06:21:27.858Z,1000.11
2018-05-10T06:22:27.849Z,1000.20
2018-05-10T06:23:27.830Z,1000.23
2018-05-10T06:24:27.821Z,1000.28
2018-05-10T06:25:27.809Z,1000.32
2018-05-10T06:26:27.802Z,1000.43
2018-05-10T06:27:27.787Z,1000.49
2018-05-10T06:28:27.773Z,1000.53
2018-05-10T06:29:27.754Z,1000.59
2018-05-10T06:30:27.749Z,1000.61
2018-05-10T06:31:27.741Z,1000.67
2018-05-10T06:32:27.721Z,1000.72
2018-05-10T06:33:27.710Z,1000.79
2018-05-10T06:34:27.699Z,1000.79
2018-05-10T06:35:27.684Z,1000.77
2018-05-10T06:36:27.681Z,1000.81
2018-05-10T06:37:27.659Z,1000.81
2018-05-10T06:38:27.656Z,1000.81
2018-05-10T06:39:27.641Z,1000.84
2018-05-10T06:40:27.630Z,1000.84
2018-05-10T06:41:27.623Z,1000.86
2018-05-10T06:42:27.602Z,1000.91
2018-05-10T06:43:27.591Z,1000.90
2018-05-10T06:44:27.586Z,1000.92
2018-05-10T06:45:27.570Z,1000.95
2018-05-10T06:46:27.559Z,1000.94
2018-05-10T06:47:27.545Z,1001.00
2018-05-10T06:48:27.541Z,1000.96
2018-05-10T06:49:27.527Z,1000.99
2018-05-10T06:50:27.513Z,1001.01
2018-05-10T06:51:27.505Z,1000.99
2018-05-10T06:52:27.491Z,1001.00
2018-05-10T06:53:27.477Z,1001.05
2018-05-10T06:54:27.472Z,1001.06
2018-05-10T06:55:27.468Z,1001.09
2018-05-10T06:56:27.448Z,1001.14
2018-05-10T06:57:27.453Z,1001.13
2018-05-10T06:58:27.429Z,1001.11
2018-05-10T06:59:27.419Z,1001.14
2018-05-10T07:00:27.413Z,1001.11
2018-05-10T07:01:27.391Z,1001.13
2018-05-10T07:02:27.389Z,1001.17
2018-05-10T07:03:27.455Z,1001.15
2018-05-10T07:04:27.360Z,1001.17
2018-05-10T07:05:27.352Z,1001.17
2018-05-10T07:06:27.344Z,1001.19
2018-05-10T07:07:27.329Z,1001.21
2018-05-10T07:08:27.315Z,1001.19
2018-05-10T07:09:27.479Z,1001.23
2018-05-10T07:10:27.296Z,1001.28
2018-05-10T07:11:27.292Z,1001.32
2018-05-10T07:12:27.274Z,1001.33
2018-05-10T07:13:27.273Z,1001.28
2018-05-10T07:14:27.254Z,1001.25
2018-05-10T07:15:27.246Z,1001.28
2018-05-10T07:16:27.240Z,1001.28
2018-05-10T07:17:27.223Z,1001.26
2018-05-10T07:18:27.216Z,1001.30
2018-05-10T07:19:27.200Z,1001.31
2018-05-10T07:20:27.191Z,1001.32
2018-05-10T07:21:27.181Z,1001.31
2018-05-10T07:22:27.172Z,1001.37
2018-05-10T07:23:27.190Z,1001.39
2018-05-10T07:24:27.154Z,1001.43
2018-05-10T07:25:27.250Z,1001.41
2018-05-10T07:26:27.132Z,1001.41
2018-05-10T07:27:27.120Z,1001.41
2018-05-10T07:28:27.110Z,1001.41
2018-05-10T07:29:27.099Z,1001.42
2018-05-10T07:30:27.091Z,1001.42
2018-05-10T07:31:27.080Z,1001.43
2018-05-10T07:32:27.066Z,1001.50
2018-05-10T07:33:27.059Z,1001.51
2018-05-10T07:34:27.045Z,1001.46
2018-05-10T07:35:27.037Z,1001.49
2018-05-10T07:36:27.038Z,1001.49
2018-05-10T07:37:27.023Z,1001.50
2018-05-10T07:38:27.006Z,1001.51
2018-05-10T07:39:26.997Z,1001.46
2018-05-10T07:40:26.988Z,1001.51
2018-05-10T07:41:26.984Z,1001.56
2018-05-10T07:42:26.962Z,1001.54
2018-05-10T07:43:26.959Z,1001.58
2018-05-10T07:44:26.943Z,1001.60
2018-05-10T07:45:26.935Z,1001.60
2018-05-10T07:46:26.921Z,1001.55
2018-05-10T07:47:26.990Z,1001.60
2018-05-10T07:48:26.903Z,1001.59
2018-05-10T07:49:26.897Z,1001.64
2018-05-10T07:50:26.879Z,1001.64
2018-05-10T07:51:26.868Z,1001.70
2018-05-10T07:52:26.859Z,1001.75
2018-05-10T07:53:26.851Z,1001.79
2018-05-10T07:54:26.851Z,1001.78
2018-05-10T07:55:26.933Z,1001.75
2018-05-10T07:56:26.818Z,1001.89
2018-05-10T07:57:26.878Z,1001.82
2018-05-10T07:58:26.795Z,1001.90
2018-05-10T07:59:26.842Z,1002.00
2018-05-10T08:00:26.778Z,1002.00
2018-05-10T08:01:26.777Z,1002.12
2018-05-10T08:02:26.756Z,1001.99
2018-05-10T08:03:26.754Z,1001.96
2018-05-10T08:04:26.738Z,1001.94
2018-05-10T08:05:26.742Z,1001.87
2018-05-10T08:06:26.721Z,1001.91
2018-05-10T08:07:26.710Z,1001.93
2018-05-10T08:08:26.706Z,1001.88
2018-05-10T08:09:26.694Z,1001.89
2018-05-10T08:10:26.687Z,1001.90
2018-05-10T08:11:26.673Z,1002.03
2018-05-10T08:12:26.664Z,1002.00
2018-05-10T08:13:26.662Z,1002.01
2018-05-10T08:14:26.650Z,1001.95
2018-05-10T08:15:26.635Z,1001.99
2018-05-10T08:16:26.640Z,1002.01
2018-05-10T08:17:26.616Z,1002.04
2018-05-10T08:18:26.611Z,1002.05
2018-05-10T08:19:26.601Z,1002.11
2018-05-10T08:20:26.587Z,1002.10
2018-05-10T08:21:26.581Z,1002.07
2018-05-10T08:22:26.572Z,1002.14
2018-05-10T08:23:26.561Z,1002.08
2018-05-10T08:24:26.548Z,1002.10
2018-05-10T08:25:26.543Z,1002.15
2018-05-10T08:26:26.531Z,1002.09
2018-05-10T08:27:26.522Z,1002.11
2018-05-10T08:28:26.512Z,1002.10
2018-05-10T08:29:26.511Z,1002.18
2018-05-10T08:30:26.499Z,1002.13
2018-05-10T08:31:26.485Z,1002.13
2018-05-10T08:32:26.476Z,1002.17
2018-05-10T08:33:26.465Z,1002.33
2018-05-10T08:34:26.469Z,1002.33
2018-05-10T08:35:26.448Z,1002.24
2018-05-10T08:36:26.513Z,1002.27
2018-05-10T08:37:26.434Z,1002.17
2018-05-10T08:38:26.427Z,1002.44
2018-05-10T08:39:26.409Z,1002.30
2018-05-10T08:40:26.401Z,1002.44
2018-05-10T08:41:26.404Z,1002.28
2018-05-10T08:42:26.382Z,1002.38
2018-05-10T08:43:26.374Z,1002.49
2018-05-10T08:44:26.371Z,1002.60
2018-05-10T08:45:26.361Z,1002.74
2018-05-10T08:46:26.348Z,1002.74
2018-05-10T08:47:26.353Z,1002.59
2018-05-10T08:48:26.333Z,1002.55
2018-05-10T08:49:26.326Z,1002.66
2018-05-10T08:50:26.319Z,1002.46
2018-05-10T08:51:26.322Z,1002.43
2018-05-10T08:52:26.303Z,1002.62
2018-05-10T08:53:26.299Z,1002.43
2018-05-10T08:54:26.291Z,1002.43
2018-05-10T08:55:26.284Z,1002.36
2018-05-10T08:56:26.278Z,1002.42
2018-05-10T08:57:26.272Z,1002.56
2018-05-10T08:58:26.261Z,1002.56
2018-05-10T08:59:26.265Z,1002.54
2018-05-10T09:00:26.251Z,1002.53
2018-05-10T09:01:26.243Z,1002.63
2018-05-10T09:02:26.233Z,1002.67
2018-05-10T09:03:26.234Z,1002.76
2018-05-10T09:04:26.231Z,1002.91
2018-05-10T09:05:26.210Z,1002.83
2018-05-10T09:06:26.214Z,1002.79
2018-05-10T09:07:26.201Z,1002.68
2018-05-10T09:08:26.191Z,1002.66
2018-05-10T09:09:26.185Z,1002.66
2018-05-10T09:10:26.180Z,1002.65
2018-05-10T09:11:26.173Z,1002.56
2018-05-10T09:12:26.171Z,1002.50
2018-05-10T09:13:26.164Z,1002.44
2018-05-10T09:14:26.164Z,1002.52
2018-05-10T09:15:26.151Z,1002.53
2018-05-10T09:16:26.148Z,1002.56
2018-05-10T09:17:26.144Z,1002.63
2018-05-10T09:18:26.132Z,1002.62
2018-05-10T09:19:26.130Z,1002.59
2018-05-10T09:20:26.131Z,1002.57
2018-05-10T09:21:26.110Z,1002.59
2018-05-10T09:22:26.118Z,1002.59
2018-05-10T09:23:26.103Z,1002.57
2018-05-10T09:24:26.107Z,1002.60
2018-05-10T09:25:26.140Z,1002.61
2018-05-10T09:26:26.083Z,1002.65
2018-05-10T09:27:26.129Z,1002.69
2018-05-10T09:28:26.082Z,1002.68
2018-05-10T09:29:26.094Z,1002.67
2018-05-10T09:30:26.063Z,1002.66
2018-05-10T09:31:26.048Z,1002.69
2018-05-10T09:32:26.041Z,1002.65
2018-05-10T09:33:26.047Z,1002.65
2018-05-10T09:34:26.040Z,1002.64
2018-05-10T09:35:26.022Z,1002.65
2018-05-10T09:36:26.012Z,1002.61
2018-05-10T09:37:26.010Z,1002.72
2018-05-10T09:38:25.998Z,1002.72
2018-05-10T09:39:26.134Z,1002.71
2018-05-10T09:40:25.982Z,1002.73
2018-05-10T09:41:25.975Z,1002.77
2018-05-10T09:42:25.975Z,1002.83
2018-05-10T09:43:25.962Z,1002.84
2018-05-10T09:44:25.951Z,1002.83
2018-05-10T09:45:25.939Z,1002.80
2018-05-10T09:46:25.930Z,1002.81
2018-05-10T09:47:25.928Z,1002.86
2018-05-10T09:48:25.915Z,1002.86
2018-05-10T09:49:25.916Z,1002.87
2018-05-10T09:50:25.901Z,1002.86
2018-05-10T09:51:25.890Z,1002.86
2018-05-10T09:52:25.879Z,1002.93
2018-05-10T09:53:25.870Z,1002.92
2018-05-10T09:54:25.865Z,1002.95
2018-05-10T09:55:25.862Z,1002.93
2018-05-10T09:56:25.851Z,1002.97
2018-05-10T09:57:25.831Z,1002.96
2018-05-10T09:58:25.826Z,1002.94
2018-05-10T09:59:25.809Z,1002.99
2018-05-10T10:00:25.805Z,1002.98
2018-05-10T10:01:25.792Z,1003.00
2018-05-10T10:02:25.850Z,1003.00
2018-05-10T10:03:25.780Z,1003.07
2018-05-10T10:04:25.772Z,1003.04
2018-05-10T10:05:25.764Z,1003.13
2018-05-10T10:06:25.912Z,1003.11
2018-05-10T10:07:25.733Z,1003.13
2018-05-10T10:08:25.820Z,1003.15
2018-05-10T10:09:25.713Z,1003.17
2018-05-10T10:10:25.801Z,1003.23
2018-05-10T10:11:25.695Z,1003.23
2018-05-10T10:12:25.691Z,1003.25
2018-05-10T10:13:25.671Z,1003.35
2018-05-10T10:14:25.761Z,1003.33
2018-05-10T10:15:25.652Z,1003.39
2018-05-10T10:16:25.643Z,1003.35
2018-05-10T10:17:25.641Z,1003.37
2018-05-10T10:18:25.633Z,1003.38
2018-05-10T10:19:25.620Z,1003.43
2018-05-10T10:20:25.603Z,1003.46
2018-05-10T10:21:25.584Z,1003.46
2018-05-10T10:22:25.578Z,1003.52
2018-05-10T10:23:25.569Z,1003.58
2018-05-10T10:24:25.555Z,1003.60
2018-05-10T10:25:25.551Z,1003.64
2018-05-10T10:26:25.536Z,1003.66
2018-05-10T10:27:25.546Z,1003.75
2018-05-10T10:28:25.521Z,1003.73
2018-05-10T10:29:25.500Z,1003.80
2018-05-10T10:30:25.489Z,1003.80
2018-05-10T10:31:25.482Z,1003.82
2018-05-10T10:32:25.483Z,1003.83
2018-05-10T10:33:25.457Z,1003.86
2018-05-10T10:34:25.516Z,1003.85
2018-05-10T10:35:25.438Z,1003.90
2018-05-10T10:36:25.431Z,1003.88
2018-05-10T10:37:25.422Z,1003.89
2018-05-10T10:38:25.414Z,1003.85
2018-05-10T10:39:25.444Z,1003.95
2018-05-10T10:40:25.383Z,1003.91
2018-05-10T10:41:25.369Z,1003.92
2018-05-10T10:42:25.369Z,1003.91
2018-05-10T10:43:25.350Z,1003.99
2018-05-10T10:44:25.358Z,1003.99
2018-05-10T10:45:25.368Z,1004.01
2018-05-10T10:46:25.322Z,1004.02
2018-05-10T10:47:25.316Z,1004.01
2018-05-10T10:48:25.309Z,1004.04
2018-05-10T10:49:25.290Z,1004.00
2018-05-10T10:50:25.273Z,1004.03
2018-05-10T10:51:25.266Z,1004.06
2018-05-10T10:52:25.250Z,1004.07
2018-05-10T10:53:25.245Z,1004.09
2018-05-10T10:54:25.230Z,1004.11
2018-05-10T10:55:25.213Z,1004.17
2018-05-10T10:56:25.212Z,1004.18
2018-05-10T10:57:25.215Z,1004.19
2018-05-10T10:58:25.199Z,1004.22
2018-05-10T10:59:25.176Z,1004.21
2018-05-10T11:00:25.162Z,1004.23
2018-05-10T11:01:25.152Z,1004.25
2018-05-10T11:02:25.142Z,1004.20
2018-05-10T11:03:25.128Z,1004.23
2018-05-10T11:04:25.121Z,1004.15
2018-05-10T11:05:25.102Z,1004.21
2018-05-10T11:06:25.089Z,1004.20
2018-05-10T11:07:25.074Z,1004.25
2018-05-10T11:08:25.073Z,1004.23
2018-05-10T11:09:25.070Z,1004.22
2018-05-10T11:10:25.051Z,1004.19
2018-05-10T11:11:25.041Z,1004.20
2018-05-10T11:12:25.023Z,1004.20
2018-05-10T11:13:25.009Z,1004.18
2018-05-10T11:14:25.001Z,1004.24
2018-05-10T11:15:24.987Z,1004.24
2018-05-10T11:16:24.971Z,1004.24
2018-05-10T11:17:24.962Z,1004.29
2018-05-10T11:18:24.956Z,1004.34
2018-05-10T11:19:24.942Z,1004.35
2018-05-10T11:20:24.933Z,1004.37
2018-05-10T11:21:24.921Z,1004.43
2018-05-10T11:22:24.900Z,1004.52
2018-05-10T11:23:24.899Z,1004.46
2018-05-10T11:24:24.878Z,1004.54
2018-05-10T11:25:24.921Z,1004.63
2018-05-10T11:26:24.866Z,1004.66
2018-05-10T11:27:24.859Z,1004.68
2018-05-10T11:28:24.831Z,1004.73
2018-05-10T11:29:24.824Z,1004.81
2018-05-10T11:30:24.828Z,1004.79
2018-05-10T11:31:24.801Z,1004.84
2018-05-10T11:32:24.781Z,1004.86
2018-05-10T11:33:24.770Z,1004.86
2018-05-10T11:34:24.761Z,1004.88
2018-05-10T11:35:24.749Z,1004.92
2018-05-10T11:36:24.735Z,1004.91
2018-05-10T11:37:24.731Z,1004.94
2018-05-10T11:38:24.712Z,1004.92
2018-05-10T11:39:24.701Z,1004.88
2018-05-10T11:40:24.693Z,1004.91
2018-05-10T11:41:24.685Z,1004.92
2018-05-10T11:42:24.701Z,1004.96
2018-05-10T11:43:24.649Z,1004.98
2018-05-10T11:44:24.642Z,1004.99
2018-05-10T11:45:24.629Z,1004.99
2018-05-10T11:46:24.621Z,1004.99
2018-05-10T11:47:24.602Z,1005.03
2018-05-10T11:48:24.592Z,1005.01
2018-05-10T11:49:24.584Z,1005.08
2018-05-10T11:50:24.566Z,1005.09
2018-05-10T11:51:24.557Z,1005.10
2018-05-10T11:52:24.553Z,1005.15
2018-05-10T11:53:24.541Z,1005.14
2018-05-10T11:54:24.529Z,1005.16
2018-05-10T11:55:24.513Z,1005.17
2018-05-10T11:56:24.492Z,1005.21
2018-05-10T11:57:24.531Z,1005.22
2018-05-10T11:58:24.468Z,1005.24
2018-05-10T11:59:24.459Z,1005.24
2018-05-10T12:00:24.468Z,1005.28
2018-05-10T12:01:24.436Z,1005.29
2018-05-10T12:02:24.432Z,1005.37
2018-05-10T12:03:24.410Z,1005.37
2018-05-10T12:04:24.399Z,1005.37
2018-05-10T12:05:24.397Z,1005.40
2018-05-10T12:06:24.377Z,1005.43
2018-05-10T12:07:24.366Z,1005.48
2018-05-10T12:08:24.393Z,1005.46
2018-05-10T12:09:24.342Z,1005.49
2018-05-10T12:10:24.420Z,1005.47
2018-05-10T12:11:24.311Z,1005.46
2018-05-10T12:12:24.404Z,1005.51
2018-05-10T12:13:24.296Z,1005.49
2018-05-10T12:14:24.330Z,1005.54
2018-05-10T12:15:24.274Z,1005.54
2018-05-10T12:16:24.250Z,1005.59